createdAt,value
2018-08-03T00:01:23.833Z,62.60
2018-08-03T00:03:52.109Z,62.00
2018-08-03T00:06:20.371Z,61.50
2018-08-03T00:08:48.658Z,61.40
2018-08-03T00:11:16.913Z,60.90
2018-08-03T00:13:45.245Z,61.00
2018-08-03T00:16:13.566Z,60.90
2018-08-03T00:18:41.800Z,60.30
2018-08-03T00:21:10.095Z,60.00
2018-08-03T00:23:38.348Z,59.70
2018-08-03T00:26:06.658Z,59.70
2018-08-03T00:28:34.907Z,60.00
2018-08-03T00:31:03.165Z,60.10
2018-08-03T00:33:31.452Z,59.80
2018-08-03T00:35:59.750Z,59.60
2018-08-03T00:38:28.038Z,59.90
2018-08-03T00:40:56.406Z,60.00
2018-08-03T00:43:25.201Z,60.30
2018-08-03T00:45:53.500Z,60.00
2018-08-03T00:48:29.542Z,59.40
2018-08-03T00:50:57.892Z,59.50
2018-08-03T00:53:26.169Z,59.40
2018-08-03T00:55:54.467Z,59.80
2018-08-03T00:58:22.959Z,59.70
2018-08-03T01:00:51.230Z,59.80
2018-08-03T01:03:19.498Z,61.20
2018-08-03T01:05:47.806Z,61.40
2018-08-03T01:08:16.112Z,63.90
2018-08-03T01:10:44.343Z,63.90
2018-08-03T01:13:13.255Z,65.00
2018-08-03T01:15:41.529Z,66.10
2018-08-03T01:18:09.857Z,66.30
2018-08-03T01:20:38.118Z,66.30
2018-08-03T01:23:06.366Z,65.60
2018-08-03T01:25:34.634Z,66.30
2018-08-03T01:28:02.878Z,66.40
2018-08-03T01:30:31.205Z,66.50
2018-08-03T01:32:59.490Z,65.80
2018-08-03T01:35:28.169Z,65.60
2018-08-03T01:37:56.444Z,65.70
2018-08-03T01:40:24.778Z,66.30
2018-08-03T01:42:53.042Z,66.50
2018-08-03T01:45:21.331Z,65.70
2018-08-03T01:47:49.688Z,66.10
2018-08-03T01:50:17.987Z,66.70
2018-08-03T01:52:46.333Z,67.10
2018-08-03T01:55:14.590Z,66.90
2018-08-03T01:57:42.834Z,66.90
2018-08-03T02:00:12.127Z,66.80
2018-08-03T02:02:40.470Z,66.70
2018-08-03T02:05:08.718Z,66.70
2018-08-03T02:07:36.963Z,67.50
2018-08-03T02:10:05.263Z,68.00
2018-08-03T02:12:33.507Z,68.00
2018-08-03T02:15:02.081Z,69.10
2018-08-03T02:17:30.334Z,67.80
2018-08-03T02:19:58.590Z,67.90
2018-08-03T02:22:26.868Z,67.90
2018-08-03T02:24:55.125Z,67.70
2018-08-03T02:27:24.349Z,68.40
2018-08-03T02:29:52.595Z,67.40
2018-08-03T02:32:20.852Z,67.70
2018-08-03T02:34:49.151Z,68.70
2018-08-03T02:37:17.420Z,68.40
2018-08-03T02:39:45.764Z,67.80
2018-08-03T02:42:14.082Z,67.90
2018-08-03T02:44:42.315Z,68.20
2018-08-03T02:47:11.225Z,69.30
2018-08-03T02:49:39.501Z,69.70
2018-08-03T02:52:08.010Z,69.90
2018-08-03T02:54:36.283Z,70.20
2018-08-03T02:57:04.753Z,70.80
2018-08-03T02:59:33.028Z,71.30
2018-08-03T03:02:01.293Z,70.70
2018-08-03T03:04:29.611Z,71.20
2018-08-03T03:06:57.927Z,70.20
2018-08-03T03:09:26.200Z,70.50
2018-08-03T03:11:54.459Z,69.50
2018-08-03T03:14:22.818Z,68.90
2018-08-03T03:16:51.699Z,69.80
2018-08-03T03:19:19.995Z,68.90
2018-08-03T03:21:48.231Z,69.70
2018-08-03T03:24:16.506Z,69.80
2018-08-03T03:26:45.341Z,69.90
2018-08-03T03:29:13.617Z,70.10
2018-08-03T03:31:41.883Z,71.50
2018-08-03T03:34:10.166Z,71.70
2018-08-03T03:36:38.397Z,71.70
2018-08-03T03:39:09.870Z,72.10
2018-08-03T03:41:38.124Z,72.80
2018-08-03T03:44:06.424Z,72.60
2018-08-03T03:46:35.099Z,72.60
2018-08-03T03:49:03.409Z,72.40
2018-08-03T03:51:31.756Z,72.80
2018-08-03T03:54:00.334Z,72.70
2018-08-03T03:56:28.641Z,72.30
2018-08-03T03:58:56.929Z,72.60
2018-08-03T04:01:25.203Z,72.10
2018-08-03T04:03:53.592Z,71.50
2018-08-03T04:06:21.865Z,71.70
2018-08-03T04:08:50.124Z,71.80
2018-08-03T04:11:18.407Z,72.00
2018-08-03T04:13:46.841Z,71.40
2018-08-03T04:16:15.129Z,71.40
2018-08-03T04:18:43.420Z,70.60
2018-08-03T04:21:11.675Z,70.30
2018-08-03T04:23:39.929Z,70.40
2018-08-03T04:26:08.209Z,70.10
2018-08-03T04:28:36.462Z,70.20
2018-08-03T04:31:04.744Z,70.50
2018-08-03T04:33:33.270Z,70.00
2018-08-03T04:36:01.875Z,70.10
2018-08-03T04:38:30.167Z,70.30
2018-08-03T04:40:58.442Z,72.10
2018-08-03T04:43:26.720Z,72.60
2018-08-03T04:45:55.019Z,72.60
2018-08-03T04:48:23.274Z,72.10
2018-08-03T04:50:51.556Z,73.90
2018-08-03T04:53:19.817Z,72.30
2018-08-03T04:55:48.071Z,72.70
2018-08-03T04:58:16.480Z,72.70
2018-08-03T05:00:44.777Z,73.90
2018-08-03T05:03:13.028Z,74.70
2018-08-03T05:05:41.283Z,73.00
2018-08-03T05:08:09.572Z,72.90
2018-08-03T05:10:37.817Z,72.40
2018-08-03T05:13:06.114Z,72.70
2018-08-03T05:15:34.426Z,73.10
2018-08-03T05:20:30.709Z,74.70
2018-08-03T05:22:58.942Z,74.20
2018-08-03T05:25:27.186Z,73.50
2018-08-03T05:27:55.427Z,74.60
2018-08-03T05:30:23.751Z,74.00
2018-08-03T05:32:52.000Z,74.00
2018-08-03T05:35:20.327Z,74.80
2018-08-03T05:37:48.539Z,74.90
2018-08-03T05:40:16.850Z,75.40
2018-08-03T05:42:45.078Z,75.00
2018-08-03T05:45:13.437Z,74.70
2018-08-03T05:47:41.713Z,73.70
2018-08-03T05:50:10.027Z,74.10
2018-08-03T05:52:38.257Z,74.10
2018-08-03T05:55:06.526Z,72.10
2018-08-03T05:57:34.791Z,66.40
2018-08-03T06:00:03.138Z,61.10
2018-08-03T06:02:31.596Z,61.60
2018-08-03T06:04:59.869Z,57.10
2018-08-03T06:07:29.007Z,55.30
2018-08-03T06:09:58.247Z,54.00
2018-08-03T06:12:26.508Z,50.60
2018-08-03T06:14:55.016Z,49.50
2018-08-03T06:17:23.274Z,50.10
2018-08-03T06:19:51.614Z,49.20
2018-08-03T06:22:20.896Z,50.20
2018-08-03T06:24:49.376Z,49.50
2018-08-03T06:27:17.637Z,46.60
2018-08-03T06:29:46.026Z,47.10
2018-08-03T06:32:14.466Z,49.00
2018-08-03T06:34:42.864Z,46.60
2018-08-03T06:37:11.154Z,48.10
2018-08-03T06:39:39.437Z,48.80
2018-08-03T06:42:07.755Z,47.90
2018-08-03T06:44:36.141Z,50.00
2018-08-03T06:47:04.416Z,49.10
2018-08-03T06:49:32.730Z,48.30
2018-08-03T06:52:01.005Z,49.20
2018-08-03T06:54:29.312Z,49.00
2018-08-03T06:56:57.556Z,47.30
2018-08-03T06:59:25.805Z,48.70
2018-08-03T07:01:54.269Z,47.60
2018-08-03T07:04:22.644Z,47.90
2018-08-03T07:06:51.123Z,46.90
2018-08-03T07:09:19.389Z,47.70
2018-08-03T07:11:47.707Z,47.40
2018-08-03T07:14:16.103Z,48.80
2018-08-03T07:16:44.330Z,48.60
2018-08-03T07:19:13.571Z,49.10
2018-08-03T07:21:41.885Z,48.70
2018-08-03T07:24:10.253Z,49.50
2018-08-03T07:26:38.559Z,48.60
2018-08-03T07:29:06.840Z,47.80
2018-08-03T07:31:35.128Z,48.20
2018-08-03T07:34:03.582Z,48.70
2018-08-03T07:36:31.887Z,49.10
2018-08-03T07:39:00.153Z,48.30
2018-08-03T07:41:29.191Z,49.10
2018-08-03T07:43:57.495Z,50.50
2018-08-03T07:46:25.777Z,49.30
2018-08-03T07:48:54.623Z,48.80
2018-08-03T07:51:22.945Z,48.20
2018-08-03T07:53:51.260Z,48.00
2018-08-03T07:56:19.535Z,48.00
2018-08-03T07:58:47.852Z,48.00
2018-08-03T08:01:16.111Z,46.00
2018-08-03T08:03:44.386Z,46.60
2018-08-03T08:06:12.699Z,46.80
2018-08-03T08:08:40.998Z,48.00
2018-08-03T08:11:09.260Z,47.80
2018-08-03T08:13:37.568Z,47.80
2018-08-03T08:16:07.479Z,47.50
2018-08-03T08:18:43.068Z,43.90
2018-08-03T08:21:11.400Z,45.30
2018-08-03T08:23:39.690Z,46.70
2018-08-03T08:26:08.459Z,46.20
2018-08-03T08:28:36.725Z,47.20
2018-08-03T08:31:04.975Z,45.80
2018-08-03T08:33:33.261Z,46.10
2018-08-03T08:36:01.541Z,46.60
2018-08-03T08:38:29.806Z,46.10
2018-08-03T08:40:59.102Z,44.00
2018-08-03T08:43:27.457Z,45.10
2018-08-03T08:45:55.824Z,46.50
2018-08-03T08:48:24.170Z,46.20
2018-08-03T08:53:20.568Z,45.50
2018-08-03T08:55:48.812Z,44.40
2018-08-03T08:58:17.065Z,44.30
2018-08-03T09:00:45.358Z,43.70
2018-08-03T09:03:13.824Z,44.80
2018-08-03T09:05:42.106Z,44.10
2018-08-03T09:08:10.353Z,44.70
2018-08-03T09:10:38.687Z,44.00
2018-08-03T09:13:07.190Z,44.10
2018-08-03T09:15:35.463Z,44.40
2018-08-03T09:18:03.778Z,43.90
2018-08-03T09:20:32.045Z,42.10
2018-08-03T09:23:00.374Z,43.60
2018-08-03T09:25:28.633Z,42.30
2018-08-03T09:27:56.914Z,42.90
2018-08-03T09:30:25.189Z,43.70
2018-08-03T09:32:53.443Z,43.00
2018-08-03T09:35:21.753Z,43.10
2018-08-03T09:37:50.922Z,42.90
2018-08-03T09:42:47.679Z,41.80
2018-08-03T09:47:43.969Z,41.20
2018-08-03T09:50:12.345Z,40.20
2018-08-03T09:52:40.572Z,38.20
2018-08-03T09:55:08.823Z,39.40
2018-08-03T09:57:37.107Z,39.70
2018-08-03T10:00:05.722Z,41.10
2018-08-03T10:02:33.991Z,39.50
2018-08-03T10:05:02.295Z,40.50
2018-08-03T10:07:30.577Z,40.00
2018-08-03T10:09:58.839Z,40.70
2018-08-03T10:12:27.128Z,41.40
2018-08-03T10:14:55.442Z,40.70
2018-08-03T10:17:23.791Z,40.90
2018-08-03T10:19:52.413Z,40.80
2018-08-03T10:22:20.732Z,40.70
2018-08-03T10:24:48.968Z,38.90
2018-08-03T10:27:17.225Z,40.60
2018-08-03T10:29:45.501Z,40.10
2018-08-03T10:32:13.790Z,40.90
2018-08-03T10:34:42.077Z,41.50
2018-08-03T10:37:10.333Z,41.40
2018-08-03T10:39:39.754Z,40.40
2018-08-03T10:42:08.049Z,41.90
2018-08-03T10:44:36.311Z,41.40
2018-08-03T10:47:04.701Z,42.40
2018-08-03T10:49:32.992Z,42.60
2018-08-03T10:52:01.258Z,41.90
2018-08-03T10:54:29.655Z,41.60
2018-08-03T10:56:57.889Z,40.70
2018-08-03T10:59:26.223Z,41.80
2018-08-03T11:01:54.529Z,41.90
2018-08-03T11:04:23.003Z,41.70
2018-08-03T11:06:51.554Z,41.80
2018-08-03T11:09:19.770Z,41.00
2018-08-03T11:11:48.520Z,41.40
2018-08-03T11:14:16.884Z,41.70
2018-08-03T11:16:45.239Z,40.00
2018-08-03T11:19:13.577Z,40.70
2018-08-03T11:21:41.848Z,40.50
2018-08-03T11:24:10.238Z,40.50
2018-08-03T11:26:38.458Z,40.70
2018-08-03T11:29:06.706Z,40.30
2018-08-03T11:31:35.002Z,40.40
2018-08-03T11:34:03.284Z,40.70
2018-08-03T11:36:31.549Z,40.60
2018-08-03T11:38:59.865Z,40.70
2018-08-03T11:41:28.130Z,40.70
2018-08-03T11:43:56.397Z,40.50
2018-08-03T11:46:24.647Z,41.20
2018-08-03T11:48:53.225Z,39.60
2018-08-03T11:51:21.484Z,39.80
2018-08-03T11:53:49.767Z,39.20
2018-08-03T11:56:18.357Z,38.70
2018-08-03T11:58:46.614Z,35.20
2018-08-03T12:01:14.971Z,35.80
2018-08-03T12:03:43.214Z,37.60
2018-08-03T12:06:11.553Z,37.50
2018-08-03T12:08:39.837Z,37.50
2018-08-03T12:11:08.203Z,36.70
2018-08-03T12:13:36.702Z,36.20
2018-08-03T12:16:06.357Z,36.30
2018-08-03T12:18:34.622Z,35.80
2018-08-03T12:21:02.913Z,34.80
2018-08-03T12:23:31.228Z,36.00
2018-08-03T12:25:59.457Z,34.70
2018-08-03T12:28:27.738Z,33.80
2018-08-03T12:30:55.997Z,35.10
2018-08-03T12:33:24.295Z,35.30
2018-08-03T12:35:52.688Z,34.60
2018-08-03T12:38:20.982Z,34.40
2018-08-03T12:40:49.273Z,29.10
2018-08-03T12:43:17.688Z,30.40
2018-08-03T12:45:45.951Z,31.30
2018-08-03T12:48:14.241Z,29.70
2018-08-03T12:50:42.590Z,30.40
2018-08-03T12:53:10.928Z,31.40
2018-08-03T12:55:39.216Z,31.20
2018-08-03T12:58:07.486Z,31.00
2018-08-03T13:00:35.773Z,31.50
2018-08-03T13:03:04.109Z,33.40
2018-08-03T13:05:32.440Z,30.90
2018-08-03T13:08:00.846Z,31.10
2018-08-03T13:10:29.062Z,32.00
2018-08-03T13:12:57.374Z,33.00
2018-08-03T13:15:25.690Z,32.80
2018-08-03T13:17:53.999Z,32.60
2018-08-03T13:20:22.280Z,32.50
2018-08-03T13:22:51.963Z,32.80
2018-08-03T13:25:20.197Z,34.10
2018-08-03T13:27:48.507Z,32.80
2018-08-03T13:30:16.828Z,31.70
2018-08-03T13:32:45.083Z,32.70
2018-08-03T13:35:13.458Z,33.20
2018-08-03T13:37:41.783Z,34.00
2018-08-03T13:40:10.110Z,34.80
2018-08-03T13:42:38.423Z,35.30
2018-08-03T13:45:06.693Z,35.50
2018-08-03T13:50:03.101Z,35.70
2018-08-03T13:52:31.338Z,35.40
2018-08-03T13:54:59.602Z,34.90
2018-08-03T13:57:27.931Z,35.20
2018-08-03T13:59:56.225Z,34.90
2018-08-03T14:02:27.059Z,34.00
2018-08-03T14:04:55.889Z,33.60
2018-08-03T14:07:25.960Z,33.40
2018-08-03T14:09:55.181Z,32.20
2018-08-03T14:12:23.513Z,32.60
2018-08-03T14:14:51.856Z,32.70
2018-08-03T14:17:20.152Z,33.80
2018-08-03T14:19:48.454Z,34.00
2018-08-03T14:22:16.856Z,33.40
2018-08-03T14:24:45.046Z,33.90
2018-08-03T14:27:13.351Z,33.50
2018-08-03T14:29:42.437Z,35.00
2018-08-03T14:32:10.755Z,35.60
2018-08-03T14:34:39.026Z,36.50
2018-08-03T14:37:07.312Z,37.00
2018-08-03T14:39:35.746Z,38.50
2018-08-03T14:42:04.006Z,39.30
2018-08-03T14:44:32.870Z,39.40
2018-08-03T14:47:01.117Z,38.80
2018-08-03T14:49:29.486Z,39.20
2018-08-03T14:51:57.774Z,39.20
2018-08-03T14:54:26.812Z,40.10
2018-08-03T14:56:55.259Z,39.20
2018-08-03T14:59:23.631Z,38.90
2018-08-03T15:01:51.886Z,39.20
2018-08-03T15:04:20.181Z,39.90
2018-08-03T15:06:48.503Z,40.20
2018-08-03T15:09:16.782Z,39.50
2018-08-03T15:11:45.144Z,39.10
2018-08-03T15:14:13.991Z,39.40
2018-08-03T15:16:42.395Z,39.70
2018-08-03T15:19:11.955Z,39.80
2018-08-03T15:21:40.394Z,40.00
2018-08-03T15:24:08.660Z,39.30
2018-08-03T15:26:37.013Z,39.70
2018-08-03T15:29:05.998Z,39.70
2018-08-03T15:31:34.244Z,40.10
2018-08-03T15:34:02.494Z,40.10
2018-08-03T15:36:30.831Z,40.70
2018-08-03T15:38:59.112Z,40.60
2018-08-03T15:41:27.404Z,40.60
2018-08-03T15:43:55.701Z,40.40
2018-08-03T15:46:24.067Z,40.00
2018-08-03T15:48:52.546Z,40.90
2018-08-03T15:51:20.812Z,40.80
2018-08-03T15:53:49.098Z,40.40
2018-08-03T15:56:17.391Z,39.90
2018-08-03T15:58:45.853Z,40.20
2018-08-03T16:01:14.217Z,40.60
2018-08-03T16:03:42.623Z,40.20
2018-08-03T16:06:12.157Z,40.30
2018-08-03T16:08:40.534Z,40.80
2018-08-03T16:11:08.838Z,40.70
2018-08-03T16:13:37.112Z,40.30
2018-08-03T16:16:05.364Z,40.20
2018-08-03T16:18:33.632Z,39.60
2018-08-03T16:21:02.005Z,39.90
2018-08-03T16:23:30.328Z,40.10
2018-08-03T16:25:58.580Z,41.20
2018-08-03T16:28:27.181Z,39.40
2018-08-03T16:30:55.794Z,40.10
2018-08-03T16:33:24.022Z,39.50
2018-08-03T16:35:52.289Z,39.20
2018-08-03T16:38:20.549Z,38.10
2018-08-03T16:40:48.805Z,38.00
2018-08-03T16:43:17.123Z,38.60
2018-08-03T16:45:45.373Z,38.20
2018-08-03T16:48:13.672Z,38.50
2018-08-03T16:50:41.980Z,38.80
2018-08-03T16:53:10.273Z,38.40
2018-08-03T16:55:38.521Z,38.40
2018-08-03T16:58:06.821Z,39.00
2018-08-03T17:00:35.089Z,39.20
2018-08-03T17:03:03.350Z,39.40
2018-08-03T17:05:31.609Z,39.60
2018-08-03T17:07:59.846Z,39.70
2018-08-03T17:10:28.152Z,40.10
2018-08-03T17:12:56.428Z,41.30
2018-08-03T17:15:24.677Z,41.20
2018-08-03T17:17:52.912Z,42.40
2018-08-03T17:20:21.257Z,45.20
2018-08-03T17:22:49.570Z,46.70
2018-08-03T17:25:17.874Z,46.40
2018-08-03T17:27:46.154Z,47.10
2018-08-03T17:30:15.450Z,46.90
2018-08-03T17:32:43.701Z,47.20
2018-08-03T17:35:12.577Z,46.50
2018-08-03T17:37:40.854Z,46.30
2018-08-03T17:40:09.108Z,46.30
2018-08-03T17:42:37.443Z,46.50
2018-08-03T17:45:05.746Z,47.10
2018-08-03T17:47:34.102Z,46.80
2018-08-03T17:50:02.397Z,47.00
2018-08-03T17:52:30.649Z,47.00
2018-08-03T17:54:58.947Z,46.90
2018-08-03T17:57:27.154Z,47.20
2018-08-03T17:59:55.475Z,47.60
2018-08-03T18:02:23.777Z,47.70
2018-08-03T18:07:20.107Z,47.40
2018-08-03T18:09:48.457Z,48.50
2018-08-03T18:12:17.721Z,48.40
2018-08-03T18:14:46.331Z,48.60
2018-08-03T18:17:14.599Z,48.60
2018-08-03T18:19:42.859Z,48.70
2018-08-03T18:22:11.208Z,48.50
2018-08-03T18:24:39.471Z,48.60
2018-08-03T18:27:07.970Z,48.50
2018-08-03T18:29:36.221Z,48.50
2018-08-03T18:32:04.500Z,49.00
2018-08-03T18:34:32.825Z,49.20
2018-08-03T18:37:01.077Z,49.30
2018-08-03T18:39:29.328Z,48.80
2018-08-03T18:41:57.632Z,49.40
2018-08-03T18:44:25.877Z,49.10
2018-08-03T18:46:54.137Z,49.30
2018-08-03T18:49:22.445Z,49.50
2018-08-03T18:51:50.707Z,49.30
2018-08-03T18:54:18.968Z,49.40
2018-08-03T18:56:47.218Z,49.00
2018-08-03T18:59:15.691Z,49.00
2018-08-03T19:01:43.940Z,48.60
2018-08-03T19:04:12.315Z,48.80
2018-08-03T19:06:40.684Z,49.10
2018-08-03T19:09:09.096Z,49.20
2018-08-03T19:11:37.566Z,48.90
2018-08-03T19:14:05.864Z,49.20
2018-08-03T19:16:34.137Z,49.30
2018-08-03T19:19:02.741Z,49.90
2018-08-03T19:21:31.025Z,50.10
2018-08-03T19:23:59.313Z,50.50
2018-08-03T19:26:27.587Z,50.40
2018-08-03T19:28:55.863Z,51.00
2018-08-03T19:31:24.232Z,51.10
2018-08-03T19:33:52.579Z,51.80
2018-08-03T19:36:20.835Z,51.50
2018-08-03T19:38:49.118Z,52.20
2018-08-03T19:41:17.401Z,52.40
2018-08-03T19:43:45.665Z,52.70
2018-08-03T19:46:13.928Z,53.40
2018-08-03T19:48:42.210Z,53.70
2018-08-03T19:51:10.464Z,54.00
2018-08-03T19:53:38.799Z,54.10
2018-08-03T19:56:07.077Z,54.80
2018-08-03T19:58:35.403Z,55.00
2018-08-03T20:01:03.665Z,55.80
2018-08-03T20:03:32.051Z,56.30
2018-08-03T20:06:00.348Z,56.50
2018-08-03T20:08:28.678Z,55.80
2018-08-03T20:10:56.969Z,55.50
2018-08-03T20:13:25.407Z,55.80
2018-08-03T20:15:53.671Z,56.10
2018-08-03T20:18:21.956Z,56.10
2018-08-03T20:20:50.297Z,56.30
2018-08-03T20:23:18.518Z,56.50
2018-08-03T20:25:46.810Z,56.90
2018-08-03T20:28:15.123Z,57.30
2018-08-03T20:30:43.495Z,57.80
2018-08-03T20:33:11.733Z,58.70
2018-08-03T20:35:40.031Z,58.80
2018-08-03T20:38:08.312Z,59.50
2018-08-03T20:40:36.674Z,59.90
2018-08-03T20:43:05.256Z,60.70
2018-08-03T20:45:33.486Z,60.70
2018-08-03T20:48:01.792Z,60.70
2018-08-03T20:50:30.069Z,60.40
2018-08-03T20:52:58.337Z,60.40
2018-08-03T20:55:26.700Z,60.00
2018-08-03T20:57:54.926Z,59.80
2018-08-03T21:00:23.222Z,59.90
2018-08-03T21:02:51.481Z,60.60
2018-08-03T21:05:19.789Z,61.00
2018-08-03T21:07:48.081Z,61.70
2018-08-03T21:10:16.387Z,61.70
2018-08-03T21:12:44.642Z,61.60
2018-08-03T21:15:13.044Z,61.20
2018-08-03T21:17:42.012Z,61.70
2018-08-03T21:20:11.402Z,62.00
2018-08-03T21:22:39.728Z,62.20
2018-08-03T21:25:09.009Z,63.20
2018-08-03T21:27:37.353Z,63.10
2018-08-03T21:30:07.857Z,62.80
2018-08-03T21:32:36.145Z,62.20
2018-08-03T21:35:04.862Z,62.10
2018-08-03T21:37:33.225Z,61.20
2018-08-03T21:40:01.441Z,60.50
2018-08-03T21:42:29.702Z,60.30
2018-08-03T21:44:57.996Z,59.90
2018-08-03T21:47:26.299Z,60.00
2018-08-03T21:49:54.631Z,59.80
2018-08-03T21:52:22.897Z,59.50
2018-08-03T21:54:51.522Z,59.70
2018-08-03T21:57:19.784Z,59.80
2018-08-03T21:59:48.056Z,60.20
2018-08-03T22:02:16.369Z,60.20
2018-08-03T22:04:44.650Z,60.20
2018-08-03T22:07:13.019Z,60.90
2018-08-03T22:09:41.329Z,62.30
2018-08-03T22:12:09.681Z,61.90
2018-08-03T22:14:38.098Z,62.60
2018-08-03T22:17:06.395Z,62.80
2018-08-03T22:19:34.878Z,63.40
2018-08-03T22:22:03.165Z,63.40
2018-08-03T22:24:31.481Z,63.80
2018-08-03T22:26:59.759Z,64.10
2018-08-03T22:29:28.047Z,64.20
2018-08-03T22:31:56.326Z,64.50
2018-08-03T22:34:24.591Z,65.00
2018-08-03T22:36:52.839Z,65.10
2018-08-03T22:39:21.151Z,64.90
2018-08-03T22:41:49.423Z,65.60
2018-08-03T22:44:17.701Z,66.40
2018-08-03T22:46:45.947Z,65.70
2018-08-03T22:49:14.236Z,64.80
2018-08-03T22:54:11.083Z,65.10
2018-08-03T22:56:39.326Z,66.40
2018-08-03T22:59:07.613Z,66.60
2018-08-03T23:01:35.857Z,66.40
2018-08-03T23:04:04.139Z,67.30
2018-08-03T23:06:32.384Z,68.10
2018-08-03T23:09:00.837Z,67.50
2018-08-03T23:11:29.074Z,67.90
2018-08-03T23:13:57.406Z,67.70
2018-08-03T23:16:25.625Z,68.10
2018-08-03T23:18:53.916Z,67.30
2018-08-03T23:21:22.368Z,67.50
2018-08-03T23:23:50.668Z,67.00
2018-08-03T23:26:18.893Z,67.60
2018-08-03T23:28:47.161Z,67.70
2018-08-03T23:31:15.468Z,69.00
2018-08-03T23:33:43.711Z,69.40
2018-08-03T23:36:12.895Z,69.10
2018-08-03T23:38:41.191Z,69.20
2018-08-03T23:41:09.446Z,68.50
2018-08-03T23:43:37.700Z,69.10
2018-08-03T23:46:06.043Z,69.50
2018-08-03T23:48:34.293Z,69.20
2018-08-03T23:51:02.559Z,69.30
2018-08-03T23:53:31.699Z,69.40
2018-08-03T23:55:59.948Z,69.10
2018-08-03T23:58:28.251Z,69.20
